sensor_id;sensor_type;location;lat;lon;timestamp;temperature;humidity
47482;DHT22;33219;47.410;9.730;2022-12-18T00:01:34;-6.10;99.90
47482;DHT22;33219;47.410;9.730;2022-12-18T00:04:04;-6.00;99.90
47482;DHT22;33219;47.410;9.730;2022-12-18T00:06:33;-6.00;99.90
47482;DHT22;33219;47.410;9.730;2022-12-18T00:09:03;-6.10;99.90
47482;DHT22;33219;47.410;9.730;2022-12-18T00:11:31;-6.10;99.90
47482;DHT22;33219;47.410;9.730;2022-12-18T00:13:59;-6.10;99.90
47482;DHT22;33219;47.410;9.730;2022-12-18T00:16:29;-6.10;99.90
47482;DHT22;33219;47.410;9.730;2022-12-18T00:18:58;-6.20;99.90
47482;DHT22;33219;47.410;9.730;2022-12-18T00:21:27;-6.20;99.90
47482;DHT22;33219;47.410;9.730;2022-12-18T00:23:56;-6.10;99.90
47482;DHT22;33219;47.410;9.730;2022-12-18T00:26:27;-6.20;99.90
47482;DHT22;33219;47.410;9.730;2022-12-18T00:28:57;-6.20;99.90
47482;DHT22;33219;47.410;9.730;2022-12-18T00:31:25;-6.20;99.90
47482;DHT22;33219;47.410;9.730;2022-12-18T00:33:54;-6.30;99.90
47482;DHT22;33219;47.410;9.730;2022-12-18T00:36:25;-6.30;99.90
47482;DHT22;33219;47.410;9.730;2022-12-18T00:38:54;-6.30;99.90
47482;DHT22;33219;47.410;9.730;2022-12-18T00:41:23;-6.20;99.90
47482;DHT22;33219;47.410;9.730;2022-12-18T00:44:11;-6.20;99.90
47482;DHT22;33219;47.410;9.730;2022-12-18T00:46:40;-6.20;99.90
47482;DHT22;33219;47.410;9.730;2022-12-18T00:49:08;-6.10;99.90
47482;DHT22;33219;47.410;9.730;2022-12-18T00:51:35;-6.10;99.90
47482;DHT22;33219;47.410;9.730;2022-12-18T00:54:04;-6.20;99.90
47482;DHT22;33219;47.410;9.730;2022-12-18T00:56:31;-6.10;99.90
47482;DHT22;33219;47.410;9.730;2022-12-18T00:58:59;-6.20;99.90
47482;DHT22;33219;47.410;9.730;2022-12-18T01:01:26;-6.20;99.90
47482;DHT22;33219;47.410;9.730;2022-12-18T01:03:54;-6.20;99.90
47482;DHT22;33219;47.410;9.730;2022-12-18T01:06:21;-6.20;99.90
47482;DHT22;33219;47.410;9.730;2022-12-18T01:08:49;-6.10;99.90
47482;DHT22;33219;47.410;9.730;2022-12-18T01:11:20;-6.00;99.90
47482;DHT22;33219;47.410;9.730;2022-12-18T01:13:47;-6.00;99.90
47482;DHT22;33219;47.410;9.730;2022-12-18T01:16:16;-6.00;99.90
47482;DHT22;33219;47.410;9.730;2022-12-18T01:18:44;-6.00;99.90
47482;DHT22;33219;47.410;9.730;2022-12-18T01:21:14;-6.10;99.90
47482;DHT22;33219;47.410;9.730;2022-12-18T01:23:42;-6.10;99.90
47482;DHT22;33219;47.410;9.730;2022-12-18T01:26:15;-6.20;99.90
47482;DHT22;33219;47.410;9.730;2022-12-18T01:28:42;-6.30;99.90
47482;DHT22;33219;47.410;9.730;2022-12-18T01:31:15;-6.30;99.90
47482;DHT22;33219;47.410;9.730;2022-12-18T01:33:44;-6.30;99.90
47482;DHT22;33219;47.410;9.730;2022-12-18T01:36:30;-6.30;99.90
47482;DHT22;33219;47.410;9.730;2022-12-18T01:38:54;-6.30;99.90
47482;DHT22;33219;47.410;9.730;2022-12-18T01:41:25;-6.30;99.90
47482;DHT22;33219;47.410;9.730;2022-12-18T01:43:55;-6.30;99.90
47482;DHT22;33219;47.410;9.730;2022-12-18T01:46:25;-6.10;99.90
47482;DHT22;33219;47.410;9.730;2022-12-18T01:48:58;-6.10;99.90
47482;DHT22;33219;47.410;9.730;2022-12-18T01:51:27;-6.00;99.90
47482;DHT22;33219;47.410;9.730;2022-12-18T01:53:57;-5.90;99.90
47482;DHT22;33219;47.410;9.730;2022-12-18T01:56:25;-5.80;99.90
47482;DHT22;33219;47.410;9.730;2022-12-18T01:59:03;-5.70;99.90
47482;DHT22;33219;47.410;9.730;2022-12-18T02:01:32;-5.60;99.90
47482;DHT22;33219;47.410;9.730;2022-12-18T02:04:19;-5.60;99.90
47482;DHT22;33219;47.410;9.730;2022-12-18T02:06:47;-5.50;99.90
47482;DHT22;33219;47.410;9.730;2022-12-18T02:09:19;-5.60;99.90
47482;DHT22;33219;47.410;9.730;2022-12-18T02:17:05;-5.70;99.90
47482;DHT22;33219;47.410;9.730;2022-12-18T02:25:12;-5.70;99.90
47482;DHT22;33219;47.410;9.730;2022-12-18T02:27:37;-5.50;99.90
47482;DHT22;33219;47.410;9.730;2022-12-18T02:30:06;-5.50;99.90
47482;DHT22;33219;47.410;9.730;2022-12-18T02:32:39;-5.40;99.90
47482;DHT22;33219;47.410;9.730;2022-12-18T02:35:13;-5.30;99.90
47482;DHT22;33219;47.410;9.730;2022-12-18T02:37:39;-5.20;99.90
47482;DHT22;33219;47.410;9.730;2022-12-18T02:40:09;-5.10;99.90
47482;DHT22;33219;47.410;9.730;2022-12-18T02:42:38;-5.00;99.90
47482;DHT22;33219;47.410;9.730;2022-12-18T02:45:06;-4.90;99.90
47482;DHT22;33219;47.410;9.730;2022-12-18T02:47:41;-4.80;99.90
47482;DHT22;33219;47.410;9.730;2022-12-18T02:52:55;-4.70;99.90
47482;DHT22;33219;47.410;9.730;2022-12-18T02:55:45;-4.60;99.90
47482;DHT22;33219;47.410;9.730;2022-12-18T02:58:17;-4.60;99.90
47482;DHT22;33219;47.410;9.730;2022-12-18T03:01:01;-4.50;99.90
47482;DHT22;33219;47.410;9.730;2022-12-18T03:03:30;-4.50;99.90
47482;DHT22;33219;47.410;9.730;2022-12-18T03:06:12;-4.40;99.90
47482;DHT22;33219;47.410;9.730;2022-12-18T03:08:38;-4.50;99.90
47482;DHT22;33219;47.410;9.730;2022-12-18T03:11:08;-4.50;99.90
47482;DHT22;33219;47.410;9.730;2022-12-18T03:13:48;-4.50;99.90
47482;DHT22;33219;47.410;9.730;2022-12-18T03:16:22;-4.50;99.90
47482;DHT22;33219;47.410;9.730;2022-12-18T03:18:49;-4.60;99.90
47482;DHT22;33219;47.410;9.730;2022-12-18T03:21:19;-4.60;99.90
47482;DHT22;33219;47.410;9.730;2022-12-18T03:23:49;-4.60;99.90
47482;DHT22;33219;47.410;9.730;2022-12-18T03:26:20;-4.60;99.90
47482;DHT22;33219;47.410;9.730;2022-12-18T03:28:59;-4.60;99.90
47482;DHT22;33219;47.410;9.730;2022-12-18T03:31:26;-4.60;99.90
47482;DHT22;33219;47.410;9.730;2022-12-18T03:34:01;-4.60;99.90
47482;DHT22;33219;47.410;9.730;2022-12-18T03:36:28;-4.60;99.90
47482;DHT22;33219;47.410;9.730;2022-12-18T03:38:56;-4.50;99.90
47482;DHT22;33219;47.410;9.730;2022-12-18T03:41:43;-4.50;99.90
47482;DHT22;33219;47.410;9.730;2022-12-18T03:44:32;-4.40;99.90
47482;DHT22;33219;47.410;9.730;2022-12-18T03:47:05;-4.50;99.90
47482;DHT22;33219;47.410;9.730;2022-12-18T03:55:01;-4.40;99.90
47482;DHT22;33219;47.410;9.730;2022-12-18T03:57:32;-4.40;99.90
47482;DHT22;33219;47.410;9.730;2022-12-18T04:00:11;-4.40;99.90
47482;DHT22;33219;47.410;9.730;2022-12-18T04:02:43;-4.30;99.90
47482;DHT22;33219;47.410;9.730;2022-12-18T04:05:11;-4.40;99.90
47482;DHT22;33219;47.410;9.730;2022-12-18T04:07:39;-4.30;99.90
47482;DHT22;33219;47.410;9.730;2022-12-18T04:10:08;-4.30;99.90
47482;DHT22;33219;47.410;9.730;2022-12-18T04:12:37;-4.30;99.90
47482;DHT22;33219;47.410;9.730;2022-12-18T04:15:06;-4.30;99.90
47482;DHT22;33219;47.410;9.730;2022-12-18T04:17:34;-4.20;99.90
47482;DHT22;33219;47.410;9.730;2022-12-18T04:20:02;-4.30;99.90
47482;DHT22;33219;47.410;9.730;2022-12-18T04:22:30;-4.30;99.90
47482;DHT22;33219;47.410;9.730;2022-12-18T04:24:57;-4.30;99.90
47482;DHT22;33219;47.410;9.730;2022-12-18T04:27:25;-4.30;99.90
47482;DHT22;33219;47.410;9.730;2022-12-18T04:29:52;-4.30;99.90
47482;DHT22;33219;47.410;9.730;2022-12-18T04:32:20;-4.30;99.90
47482;DHT22;33219;47.410;9.730;2022-12-18T04:34:47;-4.30;99.90
47482;DHT22;33219;47.410;9.730;2022-12-18T04:37:15;-4.30;99.90
47482;DHT22;33219;47.410;9.730;2022-12-18T04:39:43;-4.30;99.90
47482;DHT22;33219;47.410;9.730;2022-12-18T04:42:10;-4.20;99.90
47482;DHT22;33219;47.410;9.730;2022-12-18T04:44:38;-4.20;99.90
47482;DHT22;33219;47.410;9.730;2022-12-18T04:47:05;-4.10;99.90
47482;DHT22;33219;47.410;9.730;2022-12-18T04:49:34;-4.10;99.90
47482;DHT22;33219;47.410;9.730;2022-12-18T04:52:01;-4.10;99.90
47482;DHT22;33219;47.410;9.730;2022-12-18T04:54:29;-4.10;99.90
47482;DHT22;33219;47.410;9.730;2022-12-18T04:56:56;-4.20;99.90
47482;DHT22;33219;47.410;9.730;2022-12-18T04:59:24;-4.20;99.90
47482;DHT22;33219;47.410;9.730;2022-12-18T05:01:51;-4.20;99.90
47482;DHT22;33219;47.410;9.730;2022-12-18T05:04:19;-4.10;99.90
47482;DHT22;33219;47.410;9.730;2022-12-18T05:06:47;-4.10;99.90
47482;DHT22;33219;47.410;9.730;2022-12-18T05:09:14;-4.20;99.90
47482;DHT22;33219;47.410;9.730;2022-12-18T05:11:42;-4.10;99.90
47482;DHT22;33219;47.410;9.730;2022-12-18T05:14:09;-4.10;99.90
47482;DHT22;33219;47.410;9.730;2022-12-18T05:16:37;-4.10;99.90
47482;DHT22;33219;47.410;9.730;2022-12-18T05:19:04;-4.20;99.90
47482;DHT22;33219;47.410;9.730;2022-12-18T05:21:32;-4.20;99.90
47482;DHT22;33219;47.410;9.730;2022-12-18T05:24:00;-4.20;99.90
47482;DHT22;33219;47.410;9.730;2022-12-18T05:26:29;-4.20;99.90
47482;DHT22;33219;47.410;9.730;2022-12-18T05:28:56;-4.20;99.90
47482;DHT22;33219;47.410;9.730;2022-12-18T05:31:24;-4.20;99.90
47482;DHT22;33219;47.410;9.730;2022-12-18T05:33:52;-4.20;99.90
47482;DHT22;33219;47.410;9.730;2022-12-18T05:36:19;-4.20;99.90
47482;DHT22;33219;47.410;9.730;2022-12-18T05:38:47;-4.40;99.90
47482;DHT22;33219;47.410;9.730;2022-12-18T05:41:14;-4.50;99.90
47482;DHT22;33219;47.410;9.730;2022-12-18T05:43:42;-4.50;99.90
47482;DHT22;33219;47.410;9.730;2022-12-18T05:46:15;-4.50;99.90
47482;DHT22;33219;47.410;9.730;2022-12-18T05:48:45;-4.60;99.90
47482;DHT22;33219;47.410;9.730;2022-12-18T05:51:14;-4.70;99.90
47482;DHT22;33219;47.410;9.730;2022-12-18T05:53:43;-4.80;99.90
47482;DHT22;33219;47.410;9.730;2022-12-18T05:56:15;-4.70;99.90
47482;DHT22;33219;47.410;9.730;2022-12-18T05:58:51;-4.80;99.90
47482;DHT22;33219;47.410;9.730;2022-12-18T06:01:15;-4.70;99.90
47482;DHT22;33219;47.410;9.730;2022-12-18T06:03:43;-4.70;99.90
47482;DHT22;33219;47.410;9.730;2022-12-18T06:06:19;-4.70;99.90
47482;DHT22;33219;47.410;9.730;2022-12-18T06:08:47;-4.60;99.90
47482;DHT22;33219;47.410;9.730;2022-12-18T06:11:17;-4.50;99.90
47482;DHT22;33219;47.410;9.730;2022-12-18T06:13:45;-4.50;99.90
47482;DHT22;33219;47.410;9.730;2022-12-18T06:16:13;-4.50;99.90
47482;DHT22;33219;47.410;9.730;2022-12-18T06:18:40;-4.40;99.90
47482;DHT22;33219;47.410;9.730;2022-12-18T06:21:08;-4.40;99.90
47482;DHT22;33219;47.410;9.730;2022-12-18T06:23:36;-4.40;99.90
47482;DHT22;33219;47.410;9.730;2022-12-18T06:26:09;-4.40;99.90
47482;DHT22;33219;47.410;9.730;2022-12-18T06:28:37;-4.40;99.90
47482;DHT22;33219;47.410;9.730;2022-12-18T06:31:05;-4.40;99.90
47482;DHT22;33219;47.410;9.730;2022-12-18T06:33:33;-4.40;99.90
47482;DHT22;33219;47.410;9.730;2022-12-18T06:36:07;-4.50;99.90
47482;DHT22;33219;47.410;9.730;2022-12-18T06:38:36;-4.50;99.90
47482;DHT22;33219;47.410;9.730;2022-12-18T06:41:19;-4.50;99.90
47482;DHT22;33219;47.410;9.730;2022-12-18T06:43:43;-4.50;99.90
47482;DHT22;33219;47.410;9.730;2022-12-18T06:46:11;-4.40;99.90
47482;DHT22;33219;47.410;9.730;2022-12-18T06:48:39;-4.40;99.90
47482;DHT22;33219;47.410;9.730;2022-12-18T06:51:07;-4.40;99.90
47482;DHT22;33219;47.410;9.730;2022-12-18T06:53:35;-4.40;99.90
47482;DHT22;33219;47.410;9.730;2022-12-18T06:56:05;-4.40;99.90
47482;DHT22;33219;47.410;9.730;2022-12-18T06:58:33;-4.40;99.90
47482;DHT22;33219;47.410;9.730;2022-12-18T07:01:03;-4.30;99.90
47482;DHT22;33219;47.410;9.730;2022-12-18T07:03:31;-4.30;99.90
47482;DHT22;33219;47.410;9.730;2022-12-18T07:05:59;-4.20;99.90
47482;DHT22;33219;47.410;9.730;2022-12-18T07:08:26;-4.20;99.90
47482;DHT22;33219;47.410;9.730;2022-12-18T07:10:55;-4.10;99.90
47482;DHT22;33219;47.410;9.730;2022-12-18T07:13:23;-4.10;99.90
47482;DHT22;33219;47.410;9.730;2022-12-18T07:15:51;-4.10;99.90
47482;DHT22;33219;47.410;9.730;2022-12-18T07:18:18;-4.00;99.90
47482;DHT22;33219;47.410;9.730;2022-12-18T07:20:46;-4.00;99.90
47482;DHT22;33219;47.410;9.730;2022-12-18T07:23:13;-4.00;99.90
47482;DHT22;33219;47.410;9.730;2022-12-18T07:25:41;-4.00;99.90
47482;DHT22;33219;47.410;9.730;2022-12-18T07:28:08;-4.00;99.90
47482;DHT22;33219;47.410;9.730;2022-12-18T07:30:38;-3.90;99.90
47482;DHT22;33219;47.410;9.730;2022-12-18T07:33:05;-3.90;99.90
47482;DHT22;33219;47.410;9.730;2022-12-18T07:35:33;-4.00;99.90
47482;DHT22;33219;47.410;9.730;2022-12-18T07:38:01;-4.00;99.90
47482;DHT22;33219;47.410;9.730;2022-12-18T07:40:28;-4.00;99.90
47482;DHT22;33219;47.410;9.730;2022-12-18T07:42:56;-4.00;99.90
47482;DHT22;33219;47.410;9.730;2022-12-18T07:45:23;-4.00;99.90
47482;DHT22;33219;47.410;9.730;2022-12-18T07:47:51;-4.00;99.90
47482;DHT22;33219;47.410;9.730;2022-12-18T07:50:19;-4.00;99.90
47482;DHT22;33219;47.410;9.730;2022-12-18T07:52:46;-4.10;99.90
47482;DHT22;33219;47.410;9.730;2022-12-18T07:55:14;-4.10;99.90
47482;DHT22;33219;47.410;9.730;2022-12-18T07:57:41;-4.10;99.90
47482;DHT22;33219;47.410;9.730;2022-12-18T08:00:09;-4.10;99.90
47482;DHT22;33219;47.410;9.730;2022-12-18T08:02:37;-4.10;99.90
47482;DHT22;33219;47.410;9.730;2022-12-18T08:05:05;-4.10;99.90
47482;DHT22;33219;47.410;9.730;2022-12-18T08:07:33;-4.10;99.90
47482;DHT22;33219;47.410;9.730;2022-12-18T08:10:00;-4.10;99.90
47482;DHT22;33219;47.410;9.730;2022-12-18T08:12:28;-4.00;99.90
47482;DHT22;33219;47.410;9.730;2022-12-18T08:14:55;-3.90;99.90
47482;DHT22;33219;47.410;9.730;2022-12-18T08:17:23;-3.80;99.90
47482;DHT22;33219;47.410;9.730;2022-12-18T08:19:50;-3.70;99.90
47482;DHT22;33219;47.410;9.730;2022-12-18T08:22:18;-3.80;99.90
47482;DHT22;33219;47.410;9.730;2022-12-18T08:24:45;-3.80;99.90
47482;DHT22;33219;47.410;9.730;2022-12-18T08:27:13;-3.80;99.90
47482;DHT22;33219;47.410;9.730;2022-12-18T08:29:41;-3.80;99.90
47482;DHT22;33219;47.410;9.730;2022-12-18T08:32:08;-3.90;99.90
47482;DHT22;33219;47.410;9.730;2022-12-18T08:34:36;-3.90;99.90
47482;DHT22;33219;47.410;9.730;2022-12-18T08:37:03;-3.90;99.90
47482;DHT22;33219;47.410;9.730;2022-12-18T08:39:31;-4.00;99.90
47482;DHT22;33219;47.410;9.730;2022-12-18T08:41:59;-3.80;99.90
47482;DHT22;33219;47.410;9.730;2022-12-18T08:44:44;-3.90;99.90
47482;DHT22;33219;47.410;9.730;2022-12-18T08:47:12;-3.80;99.90
47482;DHT22;33219;47.410;9.730;2022-12-18T08:49:39;-3.70;99.90
47482;DHT22;33219;47.410;9.730;2022-12-18T08:52:07;-3.80;99.90
47482;DHT22;33219;47.410;9.730;2022-12-18T08:54:36;-3.70;99.90
47482;DHT22;33219;47.410;9.730;2022-12-18T08:57:03;-3.70;99.90
47482;DHT22;33219;47.410;9.730;2022-12-18T08:59:31;-3.60;99.90
47482;DHT22;33219;47.410;9.730;2022-12-18T09:01:58;-3.60;99.90
47482;DHT22;33219;47.410;9.730;2022-12-18T09:04:26;-3.50;99.90
47482;DHT22;33219;47.410;9.730;2022-12-18T09:06:53;-3.40;99.90
47482;DHT22;33219;47.410;9.730;2022-12-18T09:09:22;-3.20;99.90
47482;DHT22;33219;47.410;9.730;2022-12-18T09:11:50;-3.20;99.90
47482;DHT22;33219;47.410;9.730;2022-12-18T09:14:17;-3.10;99.90
47482;DHT22;33219;47.410;9.730;2022-12-18T09:16:45;-3.20;99.90
47482;DHT22;33219;47.410;9.730;2022-12-18T09:19:13;-3.20;99.90
47482;DHT22;33219;47.410;9.730;2022-12-18T09:21:41;-3.10;99.90
47482;DHT22;33219;47.410;9.730;2022-12-18T09:24:11;-2.90;99.90
47482;DHT22;33219;47.410;9.730;2022-12-18T09:26:40;-2.70;99.90
47482;DHT22;33219;47.410;9.730;2022-12-18T09:29:07;-2.80;99.90
47482;DHT22;33219;47.410;9.730;2022-12-18T09:31:36;-2.80;99.90
47482;DHT22;33219;47.410;9.730;2022-12-18T09:34:05;-2.70;99.90
47482;DHT22;33219;47.410;9.730;2022-12-18T09:36:33;-2.80;99.90
47482;DHT22;33219;47.410;9.730;2022-12-18T09:39:00;-2.70;99.90
47482;DHT22;33219;47.410;9.730;2022-12-18T09:41:39;-2.80;99.90
47482;DHT22;33219;47.410;9.730;2022-12-18T09:44:20;-2.70;99.90
47482;DHT22;33219;47.410;9.730;2022-12-18T09:46:53;-2.70;99.90
47482;DHT22;33219;47.410;9.730;2022-12-18T09:49:23;-2.70;99.90
47482;DHT22;33219;47.410;9.730;2022-12-18T09:51:57;-2.60;99.90
47482;DHT22;33219;47.410;9.730;2022-12-18T09:54:30;-2.60;99.90
47482;DHT22;33219;47.410;9.730;2022-12-18T09:56:55;-2.40;99.90
47482;DHT22;33219;47.410;9.730;2022-12-18T09:59:34;-2.40;99.90
47482;DHT22;33219;47.410;9.730;2022-12-18T10:01:57;-2.40;99.90
47482;DHT22;33219;47.410;9.730;2022-12-18T10:04:25;-2.40;99.90
47482;DHT22;33219;47.410;9.730;2022-12-18T10:07:00;-2.30;99.90
47482;DHT22;33219;47.410;9.730;2022-12-18T10:09:46;-2.30;99.90
47482;DHT22;33219;47.410;9.730;2022-12-18T10:12:19;-2.10;99.90
47482;DHT22;33219;47.410;9.730;2022-12-18T10:15:13;-2.10;99.90
47482;DHT22;33219;47.410;9.730;2022-12-18T10:20:30;-2.10;99.90
47482;DHT22;33219;47.410;9.730;2022-12-18T10:28:31;-2.10;99.90
47482;DHT22;33219;47.410;9.730;2022-12-18T10:30:59;-2.10;99.90
47482;DHT22;33219;47.410;9.730;2022-12-18T10:33:31;-2.00;99.90
47482;DHT22;33219;47.410;9.730;2022-12-18T10:36:00;-2.10;99.90
47482;DHT22;33219;47.410;9.730;2022-12-18T10:38:30;-2.20;99.90
47482;DHT22;33219;47.410;9.730;2022-12-18T10:43:33;-2.20;99.90
47482;DHT22;33219;47.410;9.730;2022-12-18T10:53:54;-1.80;99.90
47482;DHT22;33219;47.410;9.730;2022-12-18T10:56:22;-2.00;99.90
47482;DHT22;33219;47.410;9.730;2022-12-18T10:59:02;-1.80;99.90
47482;DHT22;33219;47.410;9.730;2022-12-18T11:01:52;-1.70;99.90
47482;DHT22;33219;47.410;9.730;2022-12-18T11:04:28;-1.40;99.90
47482;DHT22;33219;47.410;9.730;2022-12-18T11:07:07;-1.20;99.90
47482;DHT22;33219;47.410;9.730;2022-12-18T11:09:39;-1.20;99.90
47482;DHT22;33219;47.410;9.730;2022-12-18T11:12:18;-1.20;99.90
47482;DHT22;33219;47.410;9.730;2022-12-18T11:14:48;-1.40;99.90
47482;DHT22;33219;47.410;9.730;2022-12-18T11:20:01;-1.60;99.90
47482;DHT22;33219;47.410;9.730;2022-12-18T11:22:34;-1.40;99.90
47482;DHT22;33219;47.410;9.730;2022-12-18T11:25:05;-1.50;99.90
47482;DHT22;33219;47.410;9.730;2022-12-18T11:27:33;-1.40;99.90
47482;DHT22;33219;47.410;9.730;2022-12-18T11:30:09;-1.40;99.90
47482;DHT22;33219;47.410;9.730;2022-12-18T11:32:45;-1.30;99.90
47482;DHT22;33219;47.410;9.730;2022-12-18T11:35:34;-1.20;99.90
47482;DHT22;33219;47.410;9.730;2022-12-18T11:40:49;-0.80;99.90
47482;DHT22;33219;47.410;9.730;2022-12-18T11:43:31;-0.90;99.90
47482;DHT22;33219;47.410;9.730;2022-12-18T11:46:10;-1.10;99.90
47482;DHT22;33219;47.410;9.730;2022-12-18T11:48:58;-1.10;99.90
47482;DHT22;33219;47.410;9.730;2022-12-18T11:51:38;-1.20;99.90
47482;DHT22;33219;47.410;9.730;2022-12-18T11:54:15;-1.10;99.90
47482;DHT22;33219;47.410;9.730;2022-12-18T11:56:48;-1.10;99.90
47482;DHT22;33219;47.410;9.730;2022-12-18T12:01:55;-1.20;99.90
47482;DHT22;33219;47.410;9.730;2022-12-18T12:04:39;-1.30;99.90
47482;DHT22;33219;47.410;9.730;2022-12-18T12:07:21;-1.20;99.90
47482;DHT22;33219;47.410;9.730;2022-12-18T12:10:00;-1.30;99.90
47482;DHT22;33219;47.410;9.730;2022-12-18T12:15:17;-1.50;99.90
47482;DHT22;33219;47.410;9.730;2022-12-18T12:17:51;-1.60;99.90
47482;DHT22;33219;47.410;9.730;2022-12-18T12:20:42;-1.70;99.90
47482;DHT22;33219;47.410;9.730;2022-12-18T12:23:22;-1.70;99.90
47482;DHT22;33219;47.410;9.730;2022-12-18T12:28:49;-1.70;99.90
47482;DHT22;33219;47.410;9.730;2022-12-18T12:34:20;-1.50;99.90
47482;DHT22;33219;47.410;9.730;2022-12-18T12:39:35;-1.30;99.90
47482;DHT22;33219;47.410;9.730;2022-12-18T12:42:05;-1.20;99.90
47482;DHT22;33219;47.410;9.730;2022-12-18T12:44:54;-1.20;99.90
47482;DHT22;33219;47.410;9.730;2022-12-18T12:47:38;-1.10;99.90
47482;DHT22;33219;47.410;9.730;2022-12-18T12:50:04;-1.00;99.90
47482;DHT22;33219;47.410;9.730;2022-12-18T12:52:45;-1.10;99.90
47482;DHT22;33219;47.410;9.730;2022-12-18T12:55:16;-1.10;99.90
47482;DHT22;33219;47.410;9.730;2022-12-18T12:57:53;-1.10;99.90
47482;DHT22;33219;47.410;9.730;2022-12-18T13:00:17;-1.20;99.90
47482;DHT22;33219;47.410;9.730;2022-12-18T13:08:07;-0.90;99.90
47482;DHT22;33219;47.410;9.730;2022-12-18T13:10:39;-1.00;99.90
47482;DHT22;33219;47.410;9.730;2022-12-18T13:13:12;-0.90;99.90
47482;DHT22;33219;47.410;9.730;2022-12-18T13:15:49;-0.90;99.90
47482;DHT22;33219;47.410;9.730;2022-12-18T13:18:22;-1.10;99.90
47482;DHT22;33219;47.410;9.730;2022-12-18T13:23:32;-1.10;99.90
47482;DHT22;33219;47.410;9.730;2022-12-18T13:28:53;-1.10;99.90
47482;DHT22;33219;47.410;9.730;2022-12-18T13:34:19;-0.90;99.90
47482;DHT22;33219;47.410;9.730;2022-12-18T13:36:48;-0.90;99.90
47482;DHT22;33219;47.410;9.730;2022-12-18T13:44:37;-1.10;99.90
47482;DHT22;33219;47.410;9.730;2022-12-18T13:47:41;-1.10;99.90
47482;DHT22;33219;47.410;9.730;2022-12-18T13:49:44;-1.10;99.90
47482;DHT22;33219;47.410;9.730;2022-12-18T13:52:26;-1.20;99.90
47482;DHT22;33219;47.410;9.730;2022-12-18T13:55:01;-1.10;99.90
47482;DHT22;33219;47.410;9.730;2022-12-18T13:57:35;-1.00;99.90
47482;DHT22;33219;47.410;9.730;2022-12-18T14:00:25;-1.00;99.90
47482;DHT22;33219;47.410;9.730;2022-12-18T14:02:55;-1.00;99.90
47482;DHT22;33219;47.410;9.730;2022-12-18T14:05:28;-1.10;99.90
47482;DHT22;33219;47.410;9.730;2022-12-18T14:08:01;-1.10;99.90
47482;DHT22;33219;47.410;9.730;2022-12-18T14:10:29;-1.20;99.90
47482;DHT22;33219;47.410;9.730;2022-12-18T14:12:58;-1.10;99.90
47482;DHT22;33219;47.410;9.730;2022-12-18T14:15:32;-1.30;99.90
47482;DHT22;33219;47.410;9.730;2022-12-18T14:20:44;-1.20;99.90
47482;DHT22;33219;47.410;9.730;2022-12-18T14:23:40;-1.20;99.90
47482;DHT22;33219;47.410;9.730;2022-12-18T14:26:25;-1.20;99.90
47482;DHT22;33219;47.410;9.730;2022-12-18T14:29:00;-1.30;99.90
47482;DHT22;33219;47.410;9.730;2022-12-18T14:31:30;-1.30;99.90
47482;DHT22;33219;47.410;9.730;2022-12-18T14:33:58;-1.30;99.90
47482;DHT22;33219;47.410;9.730;2022-12-18T14:36:28;-1.40;99.90
47482;DHT22;33219;47.410;9.730;2022-12-18T14:38:57;-1.50;99.90
47482;DHT22;33219;47.410;9.730;2022-12-18T14:41:26;-1.60;99.90
47482;DHT22;33219;47.410;9.730;2022-12-18T14:43:55;-1.60;99.90
47482;DHT22;33219;47.410;9.730;2022-12-18T14:46:30;-1.60;99.90
47482;DHT22;33219;47.410;9.730;2022-12-18T14:49:01;-1.60;99.90
47482;DHT22;33219;47.410;9.730;2022-12-18T14:51:31;-1.70;99.90
47482;DHT22;33219;47.410;9.730;2022-12-18T14:54:01;-1.70;99.90
47482;DHT22;33219;47.410;9.730;2022-12-18T14:56:32;-1.60;99.90
47482;DHT22;33219;47.410;9.730;2022-12-18T14:59:06;-1.60;99.90
47482;DHT22;33219;47.410;9.730;2022-12-18T15:01:37;-1.60;99.90
47482;DHT22;33219;47.410;9.730;2022-12-18T15:04:22;-1.70;99.90
47482;DHT22;33219;47.410;9.730;2022-12-18T15:06:38;-1.90;99.90
47482;DHT22;33219;47.410;9.730;2022-12-18T15:09:22;-1.90;99.90
47482;DHT22;33219;47.410;9.730;2022-12-18T15:11:54;-2.00;99.90
47482;DHT22;33219;47.410;9.730;2022-12-18T15:16:53;-2.00;99.90
47482;DHT22;33219;47.410;9.730;2022-12-18T15:19:25;-2.00;99.90
47482;DHT22;33219;47.410;9.730;2022-12-18T15:21:52;-2.10;99.90
47482;DHT22;33219;47.410;9.730;2022-12-18T15:24:24;-2.10;99.90
47482;DHT22;33219;47.410;9.730;2022-12-18T15:26:51;-2.10;99.90
47482;DHT22;33219;47.410;9.730;2022-12-18T15:29:22;-2.20;99.90
47482;DHT22;33219;47.410;9.730;2022-12-18T15:32:10;-2.30;99.90
47482;DHT22;33219;47.410;9.730;2022-12-18T15:34:35;-2.40;99.90
47482;DHT22;33219;47.410;9.730;2022-12-18T15:37:06;-2.30;99.90
47482;DHT22;33219;47.410;9.730;2022-12-18T15:39:32;-2.40;99.90
47482;DHT22;33219;47.410;9.730;2022-12-18T15:42:02;-2.40;99.90
47482;DHT22;33219;47.410;9.730;2022-12-18T15:44:48;-2.40;99.90
47482;DHT22;33219;47.410;9.730;2022-12-18T15:47:16;-2.40;99.90
47482;DHT22;33219;47.410;9.730;2022-12-18T15:49:44;-2.40;99.90
47482;DHT22;33219;47.410;9.730;2022-12-18T15:52:13;-2.40;99.90
47482;DHT22;33219;47.410;9.730;2022-12-18T15:54:43;-2.50;99.90
47482;DHT22;33219;47.410;9.730;2022-12-18T15:57:30;-2.50;99.90
47482;DHT22;33219;47.410;9.730;2022-12-18T15:59:58;-2.50;99.90
47482;DHT22;33219;47.410;9.730;2022-12-18T16:02:25;-2.50;99.90
47482;DHT22;33219;47.410;9.730;2022-12-18T16:04:56;-2.50;99.90
47482;DHT22;33219;47.410;9.730;2022-12-18T16:07:26;-2.50;99.90
47482;DHT22;33219;47.410;9.730;2022-12-18T16:09:54;-2.50;99.90
47482;DHT22;33219;47.410;9.730;2022-12-18T16:12:22;-2.60;99.90
47482;DHT22;33219;47.410;9.730;2022-12-18T16:14:52;-2.60;99.90
47482;DHT22;33219;47.410;9.730;2022-12-18T16:17:21;-2.60;99.90
47482;DHT22;33219;47.410;9.730;2022-12-18T16:19:49;-2.60;99.90
47482;DHT22;33219;47.410;9.730;2022-12-18T16:22:22;-2.60;99.90
47482;DHT22;33219;47.410;9.730;2022-12-18T16:24:51;-2.60;99.90
47482;DHT22;33219;47.410;9.730;2022-12-18T16:27:22;-2.60;99.90
47482;DHT22;33219;47.410;9.730;2022-12-18T16:29:51;-2.60;99.90
47482;DHT22;33219;47.410;9.730;2022-12-18T16:32:20;-2.60;99.90
47482;DHT22;33219;47.410;9.730;2022-12-18T16:34:48;-2.70;99.90
47482;DHT22;33219;47.410;9.730;2022-12-18T16:37:16;-2.70;99.90
47482;DHT22;33219;47.410;9.730;2022-12-18T16:39:45;-2.70;99.90
47482;DHT22;33219;47.410;9.730;2022-12-18T16:42:18;-2.70;99.90
47482;DHT22;33219;47.410;9.730;2022-12-18T16:44:48;-2.70;99.90
47482;DHT22;33219;47.410;9.730;2022-12-18T16:47:17;-2.80;99.90
47482;DHT22;33219;47.410;9.730;2022-12-18T16:49:45;-2.80;99.90
47482;DHT22;33219;47.410;9.730;2022-12-18T16:52:15;-2.90;99.90
47482;DHT22;33219;47.410;9.730;2022-12-18T16:54:44;-2.90;99.90
47482;DHT22;33219;47.410;9.730;2022-12-18T16:57:14;-2.90;99.90
47482;DHT22;33219;47.410;9.730;2022-12-18T16:59:43;-2.90;99.90
47482;DHT22;33219;47.410;9.730;2022-12-18T17:02:13;-2.90;99.90
47482;DHT22;33219;47.410;9.730;2022-12-18T17:04:41;-2.90;99.90
47482;DHT22;33219;47.410;9.730;2022-12-18T17:07:10;-3.00;99.90
47482;DHT22;33219;47.410;9.730;2022-12-18T17:09:38;-3.00;99.90
47482;DHT22;33219;47.410;9.730;2022-12-18T17:12:06;-3.00;99.90
47482;DHT22;33219;47.410;9.730;2022-12-18T17:14:35;-3.00;99.90